createdAt,value
2024-02-26T00:00:42.086Z,6.30
2024-02-26T00:03:48.908Z,5.60
2024-02-26T00:06:56.128Z,7.90
2024-02-26T00:10:02.380Z,8.80
2024-02-26T00:16:13.217Z,10.20
2024-02-26T00:19:19.479Z,9.60
2024-02-26T00:22:25.784Z,6.40
2024-02-26T00:28:36.472Z,5.90
2024-02-26T00:34:47.430Z,5.60
2024-02-26T00:40:58.296Z,5.60
2024-02-26T00:47:09.259Z,7.20
2024-02-26T00:50:15.648Z,12.10
2024-02-26T00:53:21.734Z,8.50
2024-02-26T00:56:27.927Z,8.50
2024-02-26T01:02:39.718Z,10.40
2024-02-26T01:05:46.335Z,12.30
2024-02-26T01:08:52.787Z,11.50
2024-02-26T01:11:59.053Z,12.90
2024-02-26T01:15:05.830Z,12.10
2024-02-26T01:18:12.632Z,12.00
2024-02-26T01:21:19.008Z,12.10
2024-02-26T01:24:25.143Z,12.00
2024-02-26T01:27:31.311Z,9.70
2024-02-26T01:33:42.221Z,8.90
2024-02-26T01:36:48.883Z,9.10
2024-02-26T01:39:55.075Z,9.00
2024-02-26T01:46:06.417Z,12.20
2024-02-26T01:49:14.842Z,10.80
2024-02-26T01:52:22.858Z,9.10
2024-02-26T01:55:30.368Z,9.60
2024-02-26T01:58:38.480Z,10.00
2024-02-26T02:01:47.453Z,8.40
2024-02-26T02:04:53.942Z,6.10
2024-02-26T02:08:01.185Z,6.10
2024-02-26T02:11:08.915Z,6.90
2024-02-26T02:14:15.161Z,6.00
2024-02-26T02:20:34.432Z,7.10
2024-02-26T02:23:40.611Z,6.70
2024-02-26T02:29:52.078Z,5.90
2024-02-26T02:33:00.381Z,6.00
2024-02-26T02:36:11.480Z,6.50
2024-02-26T02:39:17.910Z,7.40
2024-02-26T02:42:24.120Z,7.20
2024-02-26T02:48:34.834Z,7.30
2024-02-26T02:51:40.967Z,7.50
2024-02-26T02:54:48.310Z,5.20
2024-02-26T02:57:54.394Z,4.70
2024-02-26T03:01:02.107Z,4.20
2024-02-26T03:04:08.858Z,3.30
2024-02-26T03:07:15.028Z,3.80
2024-02-26T03:13:25.740Z,5.50
2024-02-26T03:19:36.649Z,5.60
2024-02-26T03:25:49.450Z,6.10
2024-02-26T03:28:55.652Z,6.00
2024-02-26T03:35:08.671Z,9.90
2024-02-26T03:38:15.401Z,10.20
2024-02-26T03:41:21.529Z,8.40
2024-02-26T03:44:27.654Z,9.70
2024-02-26T03:47:33.791Z,8.50
2024-02-26T03:50:40.046Z,8.40
2024-02-26T03:56:50.937Z,6.90
2024-02-26T04:03:02.388Z,4.80
2024-02-26T04:06:10.694Z,4.40
2024-02-26T04:09:17.783Z,4.50
2024-02-26T04:12:24.180Z,5.50
2024-02-26T04:15:30.576Z,5.90
2024-02-26T04:18:36.968Z,7.30
2024-02-26T04:21:45.113Z,8.20
2024-02-26T04:24:51.256Z,6.90
2024-02-26T04:27:57.382Z,7.10
2024-02-26T04:31:03.434Z,7.50
2024-02-26T04:34:11.486Z,8.50
2024-02-26T04:37:19.159Z,8.20
2024-02-26T04:40:25.186Z,8.20
2024-02-26T04:43:31.274Z,6.80
2024-02-26T04:46:37.366Z,6.60
2024-02-26T04:49:43.471Z,7.00
2024-02-26T04:52:49.573Z,7.00
2024-02-26T04:55:55.869Z,7.80
2024-02-26T05:02:07.085Z,7.30
2024-02-26T05:05:14.061Z,5.90
2024-02-26T05:08:20.394Z,6.20
2024-02-26T05:11:27.041Z,8.30
2024-02-26T05:14:33.252Z,8.60
2024-02-26T05:17:39.363Z,8.10
2024-02-26T05:20:45.615Z,7.30
2024-02-26T05:23:51.851Z,6.90
2024-02-26T05:30:03.142Z,6.70
2024-02-26T05:36:20.054Z,6.70
2024-02-26T05:39:26.455Z,5.80
2024-02-26T05:45:37.609Z,6.00
2024-02-26T05:48:43.907Z,6.70
2024-02-26T05:54:54.533Z,6.50
2024-02-26T05:58:00.724Z,7.10
2024-02-26T06:04:13.055Z,9.20
2024-02-26T06:07:19.136Z,8.20
2024-02-26T06:10:25.442Z,8.80
2024-02-26T06:13:32.534Z,8.20
2024-02-26T06:16:38.758Z,8.30
2024-02-26T06:19:44.927Z,7.80
2024-02-26T06:25:55.710Z,8.30
2024-02-26T06:29:01.840Z,8.80
2024-02-26T06:32:09.154Z,8.70
2024-02-26T06:35:15.420Z,11.20
2024-02-26T06:41:28.876Z,7.70
2024-02-26T06:44:35.014Z,9.70
2024-02-26T06:47:41.374Z,9.80
2024-02-26T06:50:47.734Z,9.10
2024-02-26T06:53:53.904Z,9.40
2024-02-26T06:57:00.214Z,9.60
2024-02-26T07:00:07.518Z,9.60
2024-02-26T07:03:15.420Z,9.50
2024-02-26T07:06:21.742Z,9.90
2024-02-26T07:12:32.761Z,10.30
2024-02-26T07:18:44.508Z,10.60
2024-02-26T07:21:50.855Z,9.60
2024-02-26T07:24:56.917Z,9.90
2024-02-26T07:28:02.984Z,9.60
2024-02-26T07:31:09.320Z,10.30
2024-02-26T07:34:15.800Z,9.00
2024-02-26T07:37:21.879Z,10.00
2024-02-26T07:40:28.121Z,11.50
2024-02-26T07:46:38.803Z,11.00
2024-02-26T07:49:45.495Z,10.80
2024-02-26T07:52:52.517Z,11.40
2024-02-26T07:55:58.733Z,11.40
2024-02-26T07:59:04.818Z,10.70
2024-02-26T08:02:11.004Z,10.20
2024-02-26T08:05:17.336Z,11.10
2024-02-26T08:11:28.007Z,10.80
2024-02-26T08:20:44.979Z,11.00
2024-02-26T08:26:56.003Z,11.80
2024-02-26T08:30:03.126Z,11.20
2024-02-26T08:33:09.547Z,8.30
2024-02-26T08:39:20.725Z,9.70
2024-02-26T08:42:26.874Z,10.30
2024-02-26T08:48:37.824Z,6.30
2024-02-26T08:54:51.177Z,6.80
2024-02-26T08:57:57.295Z,6.00
2024-02-26T09:01:03.506Z,6.10
2024-02-26T09:07:14.269Z,5.70
2024-02-26T09:13:25.084Z,7.10
2024-02-26T09:19:35.986Z,4.50
2024-02-26T09:22:42.235Z,4.70
2024-02-26T09:28:53.229Z,2.80
2024-02-26T09:35:04.809Z,2.10
2024-02-26T09:38:11.123Z,2.40
2024-02-26T09:41:18.938Z,2.30
2024-02-26T09:44:26.593Z,2.30
2024-02-26T09:47:35.647Z,1.90
2024-02-26T09:50:43.483Z,2.10
2024-02-26T09:53:53.716Z,2.20
2024-02-26T09:57:04.835Z,3.00
2024-02-26T10:00:17.141Z,2.30
2024-02-26T10:03:27.445Z,2.50
2024-02-26T10:06:34.106Z,2.40
2024-02-26T10:09:40.694Z,2.70
2024-02-26T10:12:47.031Z,2.70
2024-02-26T10:15:53.163Z,2.60
2024-02-26T10:22:07.480Z,2.40
2024-02-26T10:25:14.186Z,3.30
2024-02-26T10:28:20.648Z,3.30
2024-02-26T10:31:27.124Z,4.90
2024-02-26T10:34:33.710Z,3.50
2024-02-26T10:37:40.001Z,3.30
2024-02-26T10:40:46.059Z,3.60
2024-02-26T10:46:57.933Z,3.40
2024-02-26T10:50:06.082Z,3.90
2024-02-26T10:53:19.081Z,4.20
2024-02-26T10:56:28.290Z,4.40
2024-02-26T10:59:37.488Z,4.70
2024-02-26T11:02:47.175Z,5.10
2024-02-26T11:05:54.216Z,5.10
2024-02-26T11:09:01.747Z,5.30
2024-02-26T11:12:12.424Z,5.90
2024-02-26T11:15:20.666Z,5.30
2024-02-26T11:18:29.313Z,5.40
2024-02-26T11:21:42.376Z,5.90
2024-02-26T11:24:49.077Z,5.90
2024-02-26T11:27:59.213Z,5.60
2024-02-26T11:31:08.485Z,5.90
2024-02-26T11:34:15.556Z,5.60
2024-02-26T11:37:22.645Z,5.30
2024-02-26T11:40:29.849Z,5.30
2024-02-26T11:44:01.999Z,4.70
2024-02-26T11:47:21.014Z,4.20
2024-02-26T11:50:41.940Z,4.10
2024-02-26T11:53:51.233Z,4.10
2024-02-26T11:57:00.289Z,3.60
2024-02-26T12:00:17.966Z,3.80
2024-02-26T12:03:25.302Z,3.90
2024-02-26T12:06:32.324Z,4.20
2024-02-26T12:09:40.171Z,3.90
2024-02-26T12:12:47.459Z,3.70
2024-02-26T12:16:01.176Z,4.20
2024-02-26T12:19:09.485Z,4.00
2024-02-26T12:22:17.319Z,4.60
2024-02-26T12:25:25.041Z,4.50
2024-02-26T12:28:33.579Z,4.10
2024-02-26T12:31:41.261Z,4.00
2024-02-26T12:34:48.263Z,4.30
2024-02-26T12:37:54.861Z,4.50
2024-02-26T12:41:01.129Z,5.00
2024-02-26T12:44:08.258Z,5.30
2024-02-26T12:47:17.787Z,5.70
2024-02-26T12:50:24.282Z,5.80
2024-02-26T12:53:30.879Z,6.10
2024-02-26T12:56:37.335Z,6.60
2024-02-26T12:59:43.681Z,6.40
2024-02-26T13:02:51.200Z,7.00
2024-02-26T13:05:57.728Z,7.30
2024-02-26T13:09:04.057Z,7.50
2024-02-26T13:12:11.895Z,7.70
2024-02-26T13:15:20.975Z,7.20
2024-02-26T13:18:32.695Z,7.70
2024-02-26T13:21:39.096Z,8.30
2024-02-26T13:24:45.238Z,8.00
2024-02-26T13:27:51.261Z,8.00
2024-02-26T13:34:04.079Z,7.50
2024-02-26T13:37:10.493Z,7.80
2024-02-26T13:40:17.584Z,8.50
2024-02-26T13:43:23.868Z,7.90
2024-02-26T13:46:30.102Z,7.80
2024-02-26T13:49:36.214Z,8.40
2024-02-26T13:52:42.473Z,8.60
2024-02-26T13:55:48.461Z,7.90
2024-02-26T14:01:59.100Z,9.10
2024-02-26T14:05:05.594Z,8.90
2024-02-26T14:08:12.148Z,9.80
2024-02-26T14:11:18.485Z,9.60
2024-02-26T14:14:24.665Z,9.90
2024-02-26T14:17:31.275Z,10.10
2024-02-26T14:20:37.324Z,12.40
2024-02-26T14:26:48.169Z,13.00
2024-02-26T14:29:54.618Z,12.20
2024-02-26T14:33:00.975Z,9.90
2024-02-26T14:36:08.370Z,10.60
2024-02-26T14:39:14.845Z,10.90
2024-02-26T14:42:20.992Z,10.70
2024-02-26T14:45:27.162Z,10.90
2024-02-26T14:48:34.177Z,10.00
2024-02-26T14:51:40.517Z,12.00
2024-02-26T14:54:46.719Z,11.50
2024-02-26T14:57:52.996Z,10.80
2024-02-26T15:00:59.008Z,10.60
2024-02-26T15:07:15.792Z,11.00
2024-02-26T15:10:22.583Z,10.90
2024-02-26T15:16:33.477Z,12.00
2024-02-26T15:19:39.878Z,11.20
2024-02-26T15:22:46.349Z,12.10
2024-02-26T15:25:52.605Z,10.70
2024-02-26T15:28:58.768Z,11.00
2024-02-26T15:32:04.750Z,11.20
2024-02-26T15:35:12.611Z,11.00
2024-02-26T15:38:18.882Z,10.70
2024-02-26T15:41:25.241Z,11.10
2024-02-26T15:44:31.345Z,10.80
2024-02-26T15:50:43.573Z,11.20
2024-02-26T15:53:50.963Z,10.70
2024-02-26T15:56:57.783Z,10.60
2024-02-26T16:00:07.782Z,10.70
2024-02-26T16:03:15.362Z,10.80
2024-02-26T16:06:28.439Z,11.10
2024-02-26T16:09:34.784Z,10.80
2024-02-26T16:12:44.061Z,11.30
2024-02-26T16:15:56.206Z,11.30
2024-02-26T16:19:12.539Z,11.00
2024-02-26T16:22:18.769Z,11.80
2024-02-26T16:25:25.605Z,12.30
2024-02-26T16:28:31.629Z,11.10
2024-02-26T16:31:37.753Z,11.40
2024-02-26T16:37:48.609Z,12.30
2024-02-26T16:40:54.754Z,12.10
